sensor_id;sensor_type;location;lat;lon;timestamp;P1;durP1;ratioP1;P2;durP2;ratioP2
54743;SDS011;40639;53.170;6.728;2024-03-06T00:02:08;11.13;;;6.60;;
54743;SDS011;40639;53.170;6.728;2024-03-06T00:04:34;13.18;;;6.32;;
54743;SDS011;40639;53.170;6.728;2024-03-06T00:07:01;11.52;;;6.78;;
54743;SDS011;40639;53.170;6.728;2024-03-06T00:09:27;13.93;;;6.45;;
54743;SDS011;40639;53.170;6.728;2024-03-06T00:11:53;15.40;;;6.85;;
54743;SDS011;40639;53.170;6.728;2024-03-06T00:14:19;13.77;;;6.47;;
54743;SDS011;40639;53.170;6.728;2024-03-06T00:16:49;12.27;;;6.47;;
54743;SDS011;40639;53.170;6.728;2024-03-06T00:19:16;12.10;;;6.03;;
54743;SDS011;40639;53.170;6.728;2024-03-06T00:21:42;15.95;;;6.30;;
54743;SDS011;40639;53.170;6.728;2024-03-06T00:24:11;10.65;;;5.97;;
54743;SDS011;40639;53.170;6.728;2024-03-06T00:26:39;13.45;;;6.20;;
54743;SDS011;40639;53.170;6.728;2024-03-06T00:29:05;15.10;;;6.22;;
54743;SDS011;40639;53.170;6.728;2024-03-06T00:31:31;11.88;;;6.20;;
54743;SDS011;40639;53.170;6.728;2024-03-06T00:33:57;11.38;;;6.07;;
54743;SDS011;40639;53.170;6.728;2024-03-06T00:36:23;13.25;;;6.28;;
54743;SDS011;40639;53.170;6.728;2024-03-06T00:38:49;12.55;;;6.22;;
54743;SDS011;40639;53.170;6.728;2024-03-06T00:41:15;15.80;;;6.65;;
54743;SDS011;40639;53.170;6.728;2024-03-06T00:43:41;10.57;;;5.72;;
54743;SDS011;40639;53.170;6.728;2024-03-06T00:46:07;11.95;;;5.97;;
54743;SDS011;40639;53.170;6.728;2024-03-06T00:48:34;14.27;;;6.10;;
54743;SDS011;40639;53.170;6.728;2024-03-06T00:51:00;11.63;;;5.50;;
54743;SDS011;40639;53.170;6.728;2024-03-06T00:53:26;12.95;;;6.30;;
54743;SDS011;40639;53.170;6.728;2024-03-06T00:55:52;11.45;;;5.78;;
54743;SDS011;40639;53.170;6.728;2024-03-06T00:58:18;11.32;;;6.55;;
54743;SDS011;40639;53.170;6.728;2024-03-06T01:00:44;11.48;;;5.93;;
54743;SDS011;40639;53.170;6.728;2024-03-06T01:03:11;15.43;;;5.65;;
54743;SDS011;40639;53.170;6.728;2024-03-06T01:05:37;11.63;;;6.10;;
54743;SDS011;40639;53.170;6.728;2024-03-06T01:08:03;12.65;;;5.80;;
54743;SDS011;40639;53.170;6.728;2024-03-06T01:10:29;11.18;;;5.82;;
54743;SDS011;40639;53.170;6.728;2024-03-06T01:12:56;10.85;;;6.00;;
54743;SDS011;40639;53.170;6.728;2024-03-06T01:15:22;13.05;;;6.40;;
54743;SDS011;40639;53.170;6.728;2024-03-06T01:17:48;12.85;;;5.90;;
54743;SDS011;40639;53.170;6.728;2024-03-06T01:20:14;9.18;;;5.53;;
54743;SDS011;40639;53.170;6.728;2024-03-06T01:22:41;10.30;;;5.68;;
54743;SDS011;40639;53.170;6.728;2024-03-06T01:25:07;16.73;;;5.65;;
54743;SDS011;40639;53.170;6.728;2024-03-06T01:27:33;10.75;;;5.97;;
54743;SDS011;40639;53.170;6.728;2024-03-06T01:29:59;9.85;;;5.57;;
54743;SDS011;40639;53.170;6.728;2024-03-06T01:32:25;11.90;;;6.72;;
54743;SDS011;40639;53.170;6.728;2024-03-06T01:34:52;13.00;;;6.07;;
54743;SDS011;40639;53.170;6.728;2024-03-06T01:37:18;11.73;;;5.70;;
54743;SDS011;40639;53.170;6.728;2024-03-06T01:39:44;9.65;;;5.80;;
54743;SDS011;40639;53.170;6.728;2024-03-06T01:42:10;12.55;;;5.70;;
54743;SDS011;40639;53.170;6.728;2024-03-06T01:44:36;10.85;;;5.82;;
54743;SDS011;40639;53.170;6.728;2024-03-06T01:47:03;12.50;;;6.13;;
54743;SDS011;40639;53.170;6.728;2024-03-06T01:49:29;10.77;;;5.78;;
54743;SDS011;40639;53.170;6.728;2024-03-06T01:51:55;12.98;;;6.13;;
54743;SDS011;40639;53.170;6.728;2024-03-06T01:54:22;13.48;;;6.05;;
54743;SDS011;40639;53.170;6.728;2024-03-06T01:56:48;10.85;;;6.55;;
54743;SDS011;40639;53.170;6.728;2024-03-06T01:59:16;12.65;;;6.05;;
54743;SDS011;40639;53.170;6.728;2024-03-06T02:01:42;11.48;;;6.10;;
54743;SDS011;40639;53.170;6.728;2024-03-06T02:04:09;17.35;;;6.35;;
54743;SDS011;40639;53.170;6.728;2024-03-06T02:06:35;11.02;;;5.85;;
54743;SDS011;40639;53.170;6.728;2024-03-06T02:09:02;11.55;;;5.82;;
54743;SDS011;40639;53.170;6.728;2024-03-06T02:11:29;10.15;;;5.47;;
54743;SDS011;40639;53.170;6.728;2024-03-06T02:13:55;10.65;;;6.10;;
54743;SDS011;40639;53.170;6.728;2024-03-06T02:16:21;11.35;;;5.93;;
54743;SDS011;40639;53.170;6.728;2024-03-06T02:18:51;12.23;;;6.25;;
54743;SDS011;40639;53.170;6.728;2024-03-06T02:21:18;11.77;;;6.68;;
54743;SDS011;40639;53.170;6.728;2024-03-06T02:23:44;14.18;;;6.55;;
54743;SDS011;40639;53.170;6.728;2024-03-06T02:26:10;12.77;;;6.47;;
54743;SDS011;40639;53.170;6.728;2024-03-06T02:28:36;10.85;;;5.95;;
54743;SDS011;40639;53.170;6.728;2024-03-06T02:31:02;12.98;;;6.57;;
54743;SDS011;40639;53.170;6.728;2024-03-06T02:33:31;15.38;;;6.82;;
54743;SDS011;40639;53.170;6.728;2024-03-06T02:35:59;12.95;;;6.53;;
54743;SDS011;40639;53.170;6.728;2024-03-06T02:38:25;12.85;;;6.78;;
54743;SDS011;40639;53.170;6.728;2024-03-06T02:40:51;12.68;;;6.30;;
54743;SDS011;40639;53.170;6.728;2024-03-06T02:43:17;11.60;;;6.40;;
54743;SDS011;40639;53.170;6.728;2024-03-06T02:45:44;12.00;;;6.10;;
54743;SDS011;40639;53.170;6.728;2024-03-06T02:48:10;11.73;;;6.15;;
54743;SDS011;40639;53.170;6.728;2024-03-06T02:50:36;13.90;;;6.75;;
54743;SDS011;40639;53.170;6.728;2024-03-06T02:53:02;11.45;;;6.47;;
54743;SDS011;40639;53.170;6.728;2024-03-06T02:55:28;12.95;;;6.63;;
54743;SDS011;40639;53.170;6.728;2024-03-06T02:57:55;11.98;;;6.47;;
54743;SDS011;40639;53.170;6.728;2024-03-06T03:00:21;13.95;;;6.78;;
54743;SDS011;40639;53.170;6.728;2024-03-06T03:02:47;11.75;;;6.35;;
54743;SDS011;40639;53.170;6.728;2024-03-06T03:05:13;16.52;;;7.25;;
54743;SDS011;40639;53.170;6.728;2024-03-06T03:07:40;13.80;;;7.15;;
54743;SDS011;40639;53.170;6.728;2024-03-06T03:10:07;14.27;;;6.63;;
54743;SDS011;40639;53.170;6.728;2024-03-06T03:12:35;13.30;;;6.60;;
54743;SDS011;40639;53.170;6.728;2024-03-06T03:15:01;11.75;;;6.35;;
54743;SDS011;40639;53.170;6.728;2024-03-06T03:17:27;11.40;;;6.88;;
54743;SDS011;40639;53.170;6.728;2024-03-06T03:19:54;12.15;;;6.30;;
54743;SDS011;40639;53.170;6.728;2024-03-06T03:22:20;12.68;;;7.00;;
54743;SDS011;40639;53.170;6.728;2024-03-06T03:24:46;12.68;;;7.05;;
54743;SDS011;40639;53.170;6.728;2024-03-06T03:27:12;13.63;;;6.93;;
54743;SDS011;40639;53.170;6.728;2024-03-06T03:29:38;13.93;;;6.90;;
54743;SDS011;40639;53.170;6.728;2024-03-06T03:32:05;16.25;;;7.18;;
54743;SDS011;40639;53.170;6.728;2024-03-06T03:34:31;12.35;;;6.85;;
54743;SDS011;40639;53.170;6.728;2024-03-06T03:36:58;13.88;;;7.43;;
54743;SDS011;40639;53.170;6.728;2024-03-06T03:39:24;13.82;;;6.90;;
54743;SDS011;40639;53.170;6.728;2024-03-06T03:41:52;13.13;;;7.18;;
54743;SDS011;40639;53.170;6.728;2024-03-06T03:44:18;15.90;;;6.65;;
54743;SDS011;40639;53.170;6.728;2024-03-06T03:46:45;13.40;;;7.05;;
54743;SDS011;40639;53.170;6.728;2024-03-06T03:49:11;13.70;;;7.45;;
54743;SDS011;40639;53.170;6.728;2024-03-06T03:51:38;14.55;;;6.95;;
54743;SDS011;40639;53.170;6.728;2024-03-06T03:54:04;13.93;;;6.85;;
54743;SDS011;40639;53.170;6.728;2024-03-06T03:56:31;15.77;;;7.97;;
54743;SDS011;40639;53.170;6.728;2024-03-06T03:58:57;13.40;;;6.82;;
54743;SDS011;40639;53.170;6.728;2024-03-06T04:01:24;16.15;;;7.38;;
54743;SDS011;40639;53.170;6.728;2024-03-06T04:03:51;13.70;;;7.28;;
54743;SDS011;40639;53.170;6.728;2024-03-06T04:06:17;12.25;;;7.22;;
54743;SDS011;40639;53.170;6.728;2024-03-06T04:08:44;13.02;;;7.45;;
54743;SDS011;40639;53.170;6.728;2024-03-06T04:11:10;13.70;;;7.43;;
54743;SDS011;40639;53.170;6.728;2024-03-06T04:13:37;13.88;;;7.10;;
54743;SDS011;40639;53.170;6.728;2024-03-06T04:16:04;14.10;;;7.45;;
54743;SDS011;40639;53.170;6.728;2024-03-06T04:18:30;13.60;;;7.20;;
54743;SDS011;40639;53.170;6.728;2024-03-06T04:21:06;13.13;;;7.40;;
54743;SDS011;40639;53.170;6.728;2024-03-06T04:23:32;15.57;;;7.63;;
54743;SDS011;40639;53.170;6.728;2024-03-06T04:26:02;13.40;;;7.43;;
54743;SDS011;40639;53.170;6.728;2024-03-06T04:28:28;13.60;;;7.32;;
54743;SDS011;40639;53.170;6.728;2024-03-06T04:30:55;14.45;;;7.05;;
54743;SDS011;40639;53.170;6.728;2024-03-06T04:33:21;11.68;;;7.05;;
54743;SDS011;40639;53.170;6.728;2024-03-06T04:35:47;14.07;;;7.45;;
54743;SDS011;40639;53.170;6.728;2024-03-06T04:38:13;12.75;;;7.43;;
54743;SDS011;40639;53.170;6.728;2024-03-06T04:40:40;13.65;;;7.55;;
54743;SDS011;40639;53.170;6.728;2024-03-06T04:43:06;12.90;;;7.70;;
54743;SDS011;40639;53.170;6.728;2024-03-06T04:45:32;18.25;;;7.53;;
54743;SDS011;40639;53.170;6.728;2024-03-06T04:47:58;15.65;;;7.97;;
54743;SDS011;40639;53.170;6.728;2024-03-06T04:50:25;14.02;;;8.00;;
54743;SDS011;40639;53.170;6.728;2024-03-06T04:52:52;13.75;;;7.25;;
54743;SDS011;40639;53.170;6.728;2024-03-06T04:55:18;14.82;;;8.00;;
54743;SDS011;40639;53.170;6.728;2024-03-06T04:57:48;12.45;;;7.05;;
54743;SDS011;40639;53.170;6.728;2024-03-06T05:00:14;16.83;;;8.13;;
54743;SDS011;40639;53.170;6.728;2024-03-06T05:02:41;15.05;;;8.10;;
54743;SDS011;40639;53.170;6.728;2024-03-06T05:05:07;14.52;;;7.45;;
54743;SDS011;40639;53.170;6.728;2024-03-06T05:07:33;15.30;;;7.53;;
54743;SDS011;40639;53.170;6.728;2024-03-06T05:10:00;15.00;;;8.10;;
54743;SDS011;40639;53.170;6.728;2024-03-06T05:12:26;13.88;;;8.02;;
54743;SDS011;40639;53.170;6.728;2024-03-06T05:14:53;14.38;;;7.80;;
54743;SDS011;40639;53.170;6.728;2024-03-06T05:17:19;12.32;;;6.80;;
54743;SDS011;40639;53.170;6.728;2024-03-06T05:19:46;17.33;;;8.18;;
54743;SDS011;40639;53.170;6.728;2024-03-06T05:22:15;13.63;;;7.03;;
54743;SDS011;40639;53.170;6.728;2024-03-06T05:24:42;14.57;;;7.57;;
54743;SDS011;40639;53.170;6.728;2024-03-06T05:27:08;15.00;;;8.23;;
54743;SDS011;40639;53.170;6.728;2024-03-06T05:29:35;13.30;;;7.68;;
54743;SDS011;40639;53.170;6.728;2024-03-06T05:32:02;16.38;;;8.23;;
54743;SDS011;40639;53.170;6.728;2024-03-06T05:34:28;13.50;;;7.32;;
54743;SDS011;40639;53.170;6.728;2024-03-06T05:36:55;15.98;;;8.25;;
54743;SDS011;40639;53.170;6.728;2024-03-06T05:39:22;14.75;;;7.78;;
54743;SDS011;40639;53.170;6.728;2024-03-06T05:41:48;16.58;;;7.47;;
54743;SDS011;40639;53.170;6.728;2024-03-06T05:44:14;15.98;;;8.15;;
54743;SDS011;40639;53.170;6.728;2024-03-06T05:46:40;13.90;;;7.70;;
54743;SDS011;40639;53.170;6.728;2024-03-06T05:49:07;14.07;;;8.07;;
54743;SDS011;40639;53.170;6.728;2024-03-06T05:51:33;16.33;;;8.00;;
54743;SDS011;40639;53.170;6.728;2024-03-06T05:53:59;16.05;;;8.27;;
54743;SDS011;40639;53.170;6.728;2024-03-06T05:56:25;16.48;;;8.55;;
54743;SDS011;40639;53.170;6.728;2024-03-06T05:58:51;14.38;;;7.85;;
54743;SDS011;40639;53.170;6.728;2024-03-06T06:01:19;13.75;;;8.77;;
54743;SDS011;40639;53.170;6.728;2024-03-06T06:03:46;14.15;;;8.10;;
54743;SDS011;40639;53.170;6.728;2024-03-06T06:06:16;14.32;;;7.60;;
54743;SDS011;40639;53.170;6.728;2024-03-06T06:08:42;16.02;;;8.35;;
54743;SDS011;40639;53.170;6.728;2024-03-06T06:11:09;13.55;;;7.65;;
54743;SDS011;40639;53.170;6.728;2024-03-06T06:13:35;15.13;;;8.20;;
54743;SDS011;40639;53.170;6.728;2024-03-06T06:16:02;14.93;;;7.95;;
54743;SDS011;40639;53.170;6.728;2024-03-06T06:18:28;19.42;;;8.95;;
54743;SDS011;40639;53.170;6.728;2024-03-06T06:20:55;17.75;;;8.55;;
54743;SDS011;40639;53.170;6.728;2024-03-06T06:23:21;15.77;;;8.32;;
54743;SDS011;40639;53.170;6.728;2024-03-06T06:25:47;17.75;;;8.50;;
54743;SDS011;40639;53.170;6.728;2024-03-06T06:28:13;16.35;;;9.43;;
54743;SDS011;40639;53.170;6.728;2024-03-06T06:30:40;15.10;;;8.40;;
54743;SDS011;40639;53.170;6.728;2024-03-06T06:33:06;16.75;;;8.32;;
54743;SDS011;40639;53.170;6.728;2024-03-06T06:35:33;17.52;;;8.73;;
54743;SDS011;40639;53.170;6.728;2024-03-06T06:38:02;16.23;;;8.52;;
54743;SDS011;40639;53.170;6.728;2024-03-06T06:40:30;15.18;;;8.50;;
54743;SDS011;40639;53.170;6.728;2024-03-06T06:42:56;16.30;;;8.50;;
54743;SDS011;40639;53.170;6.728;2024-03-06T06:45:22;16.92;;;8.93;;
54743;SDS011;40639;53.170;6.728;2024-03-06T06:47:49;17.40;;;8.63;;
54743;SDS011;40639;53.170;6.728;2024-03-06T06:50:15;17.42;;;8.52;;
54743;SDS011;40639;53.170;6.728;2024-03-06T06:52:42;17.45;;;8.32;;
54743;SDS011;40639;53.170;6.728;2024-03-06T06:55:08;14.20;;;8.48;;
54743;SDS011;40639;53.170;6.728;2024-03-06T06:57:36;18.90;;;9.70;;
54743;SDS011;40639;53.170;6.728;2024-03-06T07:00:03;14.73;;;8.82;;
54743;SDS011;40639;53.170;6.728;2024-03-06T07:02:45;14.50;;;8.30;;
54743;SDS011;40639;53.170;6.728;2024-03-06T07:05:11;16.98;;;9.68;;
54743;SDS011;40639;53.170;6.728;2024-03-06T07:07:37;16.02;;;8.13;;
54743;SDS011;40639;53.170;6.728;2024-03-06T07:10:04;16.70;;;8.75;;
54743;SDS011;40639;53.170;6.728;2024-03-06T07:12:31;17.05;;;9.15;;
54743;SDS011;40639;53.170;6.728;2024-03-06T07:14:57;19.17;;;9.23;;
54743;SDS011;40639;53.170;6.728;2024-03-06T07:17:24;16.80;;;9.05;;
54743;SDS011;40639;53.170;6.728;2024-03-06T07:19:50;17.63;;;9.73;;
54743;SDS011;40639;53.170;6.728;2024-03-06T07:22:18;19.05;;;8.85;;
54743;SDS011;40639;53.170;6.728;2024-03-06T07:24:44;17.25;;;8.90;;
54743;SDS011;40639;53.170;6.728;2024-03-06T07:27:10;15.52;;;8.90;;
54743;SDS011;40639;53.170;6.728;2024-03-06T07:29:36;17.38;;;9.05;;
54743;SDS011;40639;53.170;6.728;2024-03-06T07:32:03;21.02;;;10.00;;
54743;SDS011;40639;53.170;6.728;2024-03-06T07:34:32;17.75;;;9.73;;
54743;SDS011;40639;53.170;6.728;2024-03-06T07:36:58;16.73;;;8.32;;
54743;SDS011;40639;53.170;6.728;2024-03-06T07:39:25;18.52;;;9.63;;
54743;SDS011;40639;53.170;6.728;2024-03-06T07:41:51;14.80;;;8.68;;
54743;SDS011;40639;53.170;6.728;2024-03-06T07:44:17;17.75;;;9.95;;
54743;SDS011;40639;53.170;6.728;2024-03-06T07:46:43;17.88;;;8.57;;
54743;SDS011;40639;53.170;6.728;2024-03-06T07:49:09;16.63;;;9.18;;
54743;SDS011;40639;53.170;6.728;2024-03-06T07:51:35;18.08;;;9.38;;
54743;SDS011;40639;53.170;6.728;2024-03-06T07:54:01;18.70;;;8.98;;
54743;SDS011;40639;53.170;6.728;2024-03-06T07:56:30;18.13;;;9.85;;
54743;SDS011;40639;53.170;6.728;2024-03-06T07:58:56;16.13;;;9.23;;
54743;SDS011;40639;53.170;6.728;2024-03-06T08:01:23;19.65;;;9.32;;
54743;SDS011;40639;53.170;6.728;2024-03-06T08:03:49;16.10;;;9.30;;
54743;SDS011;40639;53.170;6.728;2024-03-06T08:06:15;17.88;;;8.60;;
54743;SDS011;40639;53.170;6.728;2024-03-06T08:08:42;19.20;;;8.70;;
54743;SDS011;40639;53.170;6.728;2024-03-06T08:11:12;15.57;;;8.88;;
54743;SDS011;40639;53.170;6.728;2024-03-06T08:13:38;15.90;;;9.05;;
54743;SDS011;40639;53.170;6.728;2024-03-06T08:16:05;17.40;;;8.85;;
54743;SDS011;40639;53.170;6.728;2024-03-06T08:18:32;17.25;;;9.13;;
54743;SDS011;40639;53.170;6.728;2024-03-06T08:20:58;20.48;;;9.40;;
54743;SDS011;40639;53.170;6.728;2024-03-06T08:23:24;18.02;;;9.20;;
54743;SDS011;40639;53.170;6.728;2024-03-06T08:25:50;18.05;;;9.32;;
54743;SDS011;40639;53.170;6.728;2024-03-06T08:28:20;17.25;;;9.65;;
54743;SDS011;40639;53.170;6.728;2024-03-06T08:30:46;20.17;;;9.13;;
54743;SDS011;40639;53.170;6.728;2024-03-06T08:33:13;22.55;;;10.40;;
54743;SDS011;40639;53.170;6.728;2024-03-06T08:35:39;17.77;;;9.90;;
54743;SDS011;40639;53.170;6.728;2024-03-06T08:38:05;25.10;;;10.38;;
54743;SDS011;40639;53.170;6.728;2024-03-06T08:40:32;16.55;;;9.40;;
54743;SDS011;40639;53.170;6.728;2024-03-06T08:42:58;17.73;;;9.88;;
54743;SDS011;40639;53.170;6.728;2024-03-06T08:45:24;18.48;;;9.90;;
54743;SDS011;40639;53.170;6.728;2024-03-06T08:47:51;18.50;;;9.65;;
54743;SDS011;40639;53.170;6.728;2024-03-06T08:50:20;17.13;;;8.93;;
54743;SDS011;40639;53.170;6.728;2024-03-06T08:52:46;17.38;;;10.05;;
54743;SDS011;40639;53.170;6.728;2024-03-06T08:55:12;19.63;;;9.40;;
54743;SDS011;40639;53.170;6.728;2024-03-06T08:57:38;21.58;;;10.10;;
54743;SDS011;40639;53.170;6.728;2024-03-06T09:00:05;17.95;;;9.32;;
54743;SDS011;40639;53.170;6.728;2024-03-06T09:02:35;16.73;;;9.75;;
54743;SDS011;40639;53.170;6.728;2024-03-06T09:05:03;18.17;;;9.00;;
54743;SDS011;40639;53.170;6.728;2024-03-06T09:07:29;18.02;;;10.25;;
54743;SDS011;40639;53.170;6.728;2024-03-06T09:09:55;18.20;;;9.55;;
54743;SDS011;40639;53.170;6.728;2024-03-06T09:12:22;15.95;;;8.93;;
54743;SDS011;40639;53.170;6.728;2024-03-06T09:14:48;16.00;;;9.63;;
54743;SDS011;40639;53.170;6.728;2024-03-06T09:17:14;18.48;;;9.68;;
54743;SDS011;40639;53.170;6.728;2024-03-06T09:19:41;18.10;;;10.27;;
54743;SDS011;40639;53.170;6.728;2024-03-06T09:22:07;21.75;;;9.90;;
54743;SDS011;40639;53.170;6.728;2024-03-06T09:24:33;18.92;;;9.05;;
54743;SDS011;40639;53.170;6.728;2024-03-06T09:27:05;20.67;;;10.63;;
54743;SDS011;40639;53.170;6.728;2024-03-06T09:29:32;19.65;;;10.32;;
54743;SDS011;40639;53.170;6.728;2024-03-06T09:31:58;21.08;;;11.13;;
54743;SDS011;40639;53.170;6.728;2024-03-06T09:34:24;19.30;;;10.70;;
54743;SDS011;40639;53.170;6.728;2024-03-06T09:36:50;24.02;;;11.48;;
54743;SDS011;40639;53.170;6.728;2024-03-06T09:39:17;24.15;;;11.35;;
54743;SDS011;40639;53.170;6.728;2024-03-06T09:41:50;22.67;;;11.70;;
54743;SDS011;40639;53.170;6.728;2024-03-06T09:44:16;28.55;;;11.27;;
54743;SDS011;40639;53.170;6.728;2024-03-06T09:46:46;25.08;;;11.25;;
54743;SDS011;40639;53.170;6.728;2024-03-06T09:49:13;24.02;;;10.90;;
54743;SDS011;40639;53.170;6.728;2024-03-06T09:51:42;21.23;;;11.23;;
54743;SDS011;40639;53.170;6.728;2024-03-06T09:54:10;26.77;;;11.27;;
54743;SDS011;40639;53.170;6.728;2024-03-06T09:56:38;24.42;;;12.30;;
54743;SDS011;40639;53.170;6.728;2024-03-06T09:59:04;23.17;;;12.38;;
54743;SDS011;40639;53.170;6.728;2024-03-06T10:01:31;23.60;;;12.45;;
54743;SDS011;40639;53.170;6.728;2024-03-06T10:03:57;24.67;;;13.52;;
54743;SDS011;40639;53.170;6.728;2024-03-06T10:06:23;26.23;;;13.77;;
54743;SDS011;40639;53.170;6.728;2024-03-06T10:08:51;25.15;;;13.23;;
54743;SDS011;40639;53.170;6.728;2024-03-06T10:11:17;25.15;;;12.15;;
54743;SDS011;40639;53.170;6.728;2024-03-06T10:13:44;25.85;;;12.10;;
54743;SDS011;40639;53.170;6.728;2024-03-06T10:16:10;25.85;;;11.15;;
54743;SDS011;40639;53.170;6.728;2024-03-06T10:18:39;25.67;;;11.73;;
54743;SDS011;40639;53.170;6.728;2024-03-06T10:21:05;25.40;;;11.27;;
54743;SDS011;40639;53.170;6.728;2024-03-06T10:23:31;22.10;;;11.50;;
54743;SDS011;40639;53.170;6.728;2024-03-06T10:25:57;26.20;;;12.20;;
54743;SDS011;40639;53.170;6.728;2024-03-06T10:28:24;24.63;;;12.10;;
54743;SDS011;40639;53.170;6.728;2024-03-06T10:31:02;24.67;;;11.40;;
54743;SDS011;40639;53.170;6.728;2024-03-06T10:33:28;25.88;;;11.85;;
54743;SDS011;40639;53.170;6.728;2024-03-06T10:35:55;22.75;;;12.48;;
54743;SDS011;40639;53.170;6.728;2024-03-06T10:38:22;32.53;;;12.75;;
54743;SDS011;40639;53.170;6.728;2024-03-06T10:40:50;21.08;;;12.23;;
54743;SDS011;40639;53.170;6.728;2024-03-06T10:43:17;23.50;;;11.10;;
54743;SDS011;40639;53.170;6.728;2024-03-06T10:45:46;27.67;;;12.32;;
54743;SDS011;40639;53.170;6.728;2024-03-06T10:48:13;22.85;;;13.05;;
54743;SDS011;40639;53.170;6.728;2024-03-06T10:50:40;24.60;;;12.68;;
54743;SDS011;40639;53.170;6.728;2024-03-06T10:53:09;21.33;;;12.70;;
54743;SDS011;40639;53.170;6.728;2024-03-06T10:55:35;21.50;;;12.98;;
54743;SDS011;40639;53.170;6.728;2024-03-06T10:58:03;26.75;;;12.68;;
54743;SDS011;40639;53.170;6.728;2024-03-06T11:00:34;26.85;;;13.98;;
54743;SDS011;40639;53.170;6.728;2024-03-06T11:03:02;22.30;;;13.10;;
54743;SDS011;40639;53.170;6.728;2024-03-06T11:05:34;28.27;;;12.85;;
54743;SDS011;40639;53.170;6.728;2024-03-06T11:08:00;26.13;;;13.02;;
54743;SDS011;40639;53.170;6.728;2024-03-06T11:10:36;23.33;;;13.10;;
54743;SDS011;40639;53.170;6.728;2024-03-06T11:15:30;25.48;;;12.93;;
54743;SDS011;40639;53.170;6.728;2024-03-06T11:17:57;24.52;;;12.77;;
54743;SDS011;40639;53.170;6.728;2024-03-06T11:20:23;25.85;;;12.82;;
54743;SDS011;40639;53.170;6.728;2024-03-06T11:28:09;29.48;;;16.08;;
54743;SDS011;40639;53.170;6.728;2024-03-06T11:33:12;29.93;;;14.47;;
54743;SDS011;40639;53.170;6.728;2024-03-06T11:35:43;23.90;;;13.20;;
54743;SDS011;40639;53.170;6.728;2024-03-06T11:38:16;27.42;;;14.00;;
54743;SDS011;40639;53.170;6.728;2024-03-06T11:40:43;24.50;;;12.65;;
54743;SDS011;40639;53.170;6.728;2024-03-06T11:43:22;22.65;;;12.50;;
54743;SDS011;40639;53.170;6.728;2024-03-06T11:45:49;25.65;;;13.93;;
54743;SDS011;40639;53.170;6.728;2024-03-06T11:48:15;26.05;;;13.20;;
54743;SDS011;40639;53.170;6.728;2024-03-06T11:50:42;26.70;;;13.75;;
54743;SDS011;40639;53.170;6.728;2024-03-06T11:53:08;26.60;;;13.77;;
54743;SDS011;40639;53.170;6.728;2024-03-06T11:55:34;25.35;;;13.02;;
54743;SDS011;40639;53.170;6.728;2024-03-06T11:58:00;26.10;;;12.85;;
54743;SDS011;40639;53.170;6.728;2024-03-06T12:00:29;22.58;;;13.90;;
54743;SDS011;40639;53.170;6.728;2024-03-06T12:02:56;25.63;;;12.98;;
54743;SDS011;40639;53.170;6.728;2024-03-06T12:05:22;28.52;;;13.45;;
54743;SDS011;40639;53.170;6.728;2024-03-06T12:07:50;28.75;;;13.57;;
54743;SDS011;40639;53.170;6.728;2024-03-06T12:10:16;23.40;;;14.45;;
54743;SDS011;40639;53.170;6.728;2024-03-06T12:12:43;25.67;;;14.68;;
54743;SDS011;40639;53.170;6.728;2024-03-06T12:15:15;23.30;;;13.27;;
54743;SDS011;40639;53.170;6.728;2024-03-06T12:17:44;22.27;;;13.00;;
54743;SDS011;40639;53.170;6.728;2024-03-06T12:20:11;26.38;;;13.13;;
54743;SDS011;40639;53.170;6.728;2024-03-06T12:22:53;24.00;;;12.85;;
54743;SDS011;40639;53.170;6.728;2024-03-06T12:25:25;18.38;;;11.48;;
54743;SDS011;40639;53.170;6.728;2024-03-06T12:27:51;25.17;;;12.65;;
54743;SDS011;40639;53.170;6.728;2024-03-06T12:30:18;21.20;;;13.45;;
54743;SDS011;40639;53.170;6.728;2024-03-06T12:32:44;20.30;;;11.35;;
54743;SDS011;40639;53.170;6.728;2024-03-06T12:35:10;22.35;;;13.10;;
54743;SDS011;40639;53.170;6.728;2024-03-06T12:37:37;19.98;;;12.10;;
54743;SDS011;40639;53.170;6.728;2024-03-06T12:40:03;20.02;;;12.70;;
54743;SDS011;40639;53.170;6.728;2024-03-06T12:42:30;21.50;;;12.43;;
54743;SDS011;40639;53.170;6.728;2024-03-06T12:44:56;19.33;;;11.90;;
54743;SDS011;40639;53.170;6.728;2024-03-06T12:47:22;25.15;;;12.50;;
54743;SDS011;40639;53.170;6.728;2024-03-06T12:49:48;21.23;;;12.57;;
54743;SDS011;40639;53.170;6.728;2024-03-06T12:52:16;19.63;;;11.75;;
54743;SDS011;40639;53.170;6.728;2024-03-06T12:54:42;19.20;;;11.68;;
54743;SDS011;40639;53.170;6.728;2024-03-06T12:57:08;20.55;;;12.48;;
54743;SDS011;40639;53.170;6.728;2024-03-06T12:59:34;27.75;;;14.82;;
54743;SDS011;40639;53.170;6.728;2024-03-06T13:02:00;24.05;;;14.20;;
54743;SDS011;40639;53.170;6.728;2024-03-06T13:04:26;25.88;;;13.98;;
54743;SDS011;40639;53.170;6.728;2024-03-06T13:06:52;24.58;;;13.93;;
54743;SDS011;40639;53.170;6.728;2024-03-06T13:09:18;21.65;;;13.48;;
54743;SDS011;40639;53.170;6.728;2024-03-06T13:11:45;24.20;;;14.45;;
54743;SDS011;40639;53.170;6.728;2024-03-06T13:14:11;23.80;;;14.18;;
54743;SDS011;40639;53.170;6.728;2024-03-06T13:16:37;26.55;;;14.73;;
54743;SDS011;40639;53.170;6.728;2024-03-06T13:19:03;22.02;;;13.65;;
54743;SDS011;40639;53.170;6.728;2024-03-06T13:21:29;26.55;;;14.45;;
54743;SDS011;40639;53.170;6.728;2024-03-06T13:23:55;30.25;;;13.77;;
54743;SDS011;40639;53.170;6.728;2024-03-06T13:26:21;25.00;;;12.68;;
54743;SDS011;40639;53.170;6.728;2024-03-06T13:28:47;24.60;;;14.35;;
54743;SDS011;40639;53.170;6.728;2024-03-06T13:31:14;21.60;;;13.02;;
54743;SDS011;40639;53.170;6.728;2024-03-06T13:33:40;26.90;;;14.77;;
54743;SDS011;40639;53.170;6.728;2024-03-06T13:36:06;21.35;;;13.27;;
54743;SDS011;40639;53.170;6.728;2024-03-06T13:38:33;22.27;;;13.55;;
54743;SDS011;40639;53.170;6.728;2024-03-06T13:40:59;21.00;;;13.15;;
54743;SDS011;40639;53.170;6.728;2024-03-06T13:43:27;23.83;;;12.98;;
54743;SDS011;40639;53.170;6.728;2024-03-06T13:45:53;20.13;;;12.98;;
54743;SDS011;40639;53.170;6.728;2024-03-06T13:48:20;27.48;;;12.65;;
54743;SDS011;40639;53.170;6.728;2024-03-06T13:50:47;23.20;;;12.82;;
54743;SDS011;40639;53.170;6.728;2024-03-06T13:53:14;17.90;;;12.18;;
54743;SDS011;40639;53.170;6.728;2024-03-06T13:55:40;23.95;;;12.23;;
54743;SDS011;40639;53.170;6.728;2024-03-06T13:58:06;19.73;;;11.25;;
54743;SDS011;40639;53.170;6.728;2024-03-06T14:00:33;21.27;;;11.70;;
54743;SDS011;40639;53.170;6.728;2024-03-06T14:03:00;22.75;;;12.50;;
54743;SDS011;40639;53.170;6.728;2024-03-06T14:05:26;21.52;;;12.40;;
54743;SDS011;40639;53.170;6.728;2024-03-06T14:07:53;21.65;;;12.43;;
54743;SDS011;40639;53.170;6.728;2024-03-06T14:10:20;19.50;;;11.95;;
54743;SDS011;40639;53.170;6.728;2024-03-06T14:12:48;21.33;;;12.75;;
54743;SDS011;40639;53.170;6.728;2024-03-06T14:15:20;23.08;;;12.98;;
54743;SDS011;40639;53.170;6.728;2024-03-06T14:17:48;20.88;;;11.68;;
54743;SDS011;40639;53.170;6.728;2024-03-06T14:20:14;19.50;;;12.32;;
54743;SDS011;40639;53.170;6.728;2024-03-06T14:22:41;20.90;;;12.63;;
54743;SDS011;40639;53.170;6.728;2024-03-06T14:25:07;27.48;;;13.32;;
54743;SDS011;40639;53.170;6.728;2024-03-06T14:27:33;20.23;;;12.73;;
54743;SDS011;40639;53.170;6.728;2024-03-06T14:30:01;22.77;;;13.60;;
54743;SDS011;40639;53.170;6.728;2024-03-06T14:32:27;22.63;;;13.23;;
54743;SDS011;40639;53.170;6.728;2024-03-06T14:34:53;21.15;;;12.48;;
54743;SDS011;40639;53.170;6.728;2024-03-06T14:37:20;22.92;;;13.30;;
54743;SDS011;40639;53.170;6.728;2024-03-06T14:39:46;23.17;;;13.80;;